Aérodrome :
LOGIN :

S'inscrire | Disclaimer

   EN    FR    IT 

 










Légende :    VFR   VFR Marginal   IFR   IFR Intensif   IFR Très Intensif
Visi : 
Plafond : 
>= 8 km
>= 3000ft
5 à 8 km
1000 à 3000 ft
1500m à 5 km
500 à 1000 ft
800 à 1500m
200 à 500 ft
< 800m
< 200 ft
Symboles :   Orages  Brouillard  Fortes neiges  Fortes précipitations  Vent > 20 kt
SIGMETs :   Divers  Orages  Givrage  Turbulence  Onde Orograph.  Cendres Volcan.







- Altitude de l'aérodrome : 408 ft
- Code IATA : FKB


EDSB - Karlsruhe Baden Baden

DERNIER METAR :
  • 261720Z VRB02KT 9999 FEW032 08/02 Q1011

METARs EXPIRÉS :
  • 261650Z VRB02KT CAVOK 08/03 Q1011
  • 261620Z VRB03KT CAVOK 09/02 Q1011
  • 261550Z VRB03KT 9999 FEW030 BKN052 08/02 Q1012
  • 261520Z 07004KT 040V100 9999 SCT025 BKN052 09/02 Q1012
  • 261450Z 07006KT 020V100 9999 -SHRA SCT032 BKN040 08/02 Q1012

TAF TAF EDSB
Valide du 26 à 18h jusqu'au 27 à 18h UTC


261700Z 2618/2718 VRB03KT 9999 BKN040
BECMG 2706/2709 02005KT
BECMG 2715/2718 16003KT
Pas de NOTAMs connus pour ce terrain.



MET'MAP, la Météo Aéronautique d'un coup d'oeil ! - Copyright ORBIFLY Décembre 2007 - Disclaimer

ORBIFLY MET'MAP TEAM :

Programmation & Développement : Alexandra Zaïnal
Conception & Développement : Baudouin d'Aumeries
Co-Programmation & Développement : Marc-Olivier Méhu
Soutien technique & logistique : Manuel Goepfert

Contact : metmap@orbifly.com




SOURCES & CREDITS :

   NOAA